Time;durP1;ratioP1;P1;durP2;ratioP2;P2;SDS_P1;SDS_P2;PMS_P1;PMS_P2;Temp;Humidity;BMP_temperature;BMP_pressure;BME280_temperature;BME280_humidity;BME280_pressure;Samples;Min_cycle;Max_cycle;Signal;HPM_P1;HPM_P2
2022/09/21 00:01:51;;;;;;;1.85;1.20;;;;;;;;;;6271408;22;20110;-64
2022/09/21 00:04:18;;;;;;;3.30;1.23;;;;;;;;;;6271565;22;20416;-65
2022/09/21 00:06:52;;;;;;;2.15;1.17;;;;;;;;;;6269097;22;20038;-65
2022/09/21 00:09:19;;;;;;;1.92;1.15;;;;;;;;;;6269690;22;20019;-64
2022/09/21 00:11:46;;;;;;;1.85;1.05;;;;;;;;;;6270970;22;20031;-64
2022/09/21 00:14:24;;;;;;;1.77;1.23;;;;;;;;;;6268145;22;20026;-64
2022/09/21 00:16:57;;;;;;;1.30;1.20;;;;;;;;;;6268023;22;20023;-64
2022/09/21 00:19:31;;;;;;;2.80;1.10;;;;;;;;;;6270061;22;20019;-64
2022/09/21 00:21:58;;;;;;;2.55;1.17;;;;;;;;;;6266632;22;20607;-64
2022/09/21 00:24:33;;;;;;;2.00;1.30;;;;;;;;;;6269841;22;20020;-64
2022/09/21 00:27:01;;;;;;;2.10;1.33;;;;;;;;;;6270554;22;20493;-63
2022/09/21 00:29:28;;;;;;;1.15;1.05;;;;;;;;;;6267962;22;20099;-64
2022/09/21 00:32:02;;;;;;;3.70;1.48;;;;;;;;;;6269827;22;20020;-64
2022/09/21 00:34:29;;;;;;;3.00;1.27;;;;;;;;;;6269143;22;20527;-56
2022/09/21 00:37:03;;;;;;;2.15;1.25;;;;;;;;;;6268251;22;20022;-56
2022/09/21 00:39:30;;;;;;;3.50;1.42;;;;;;;;;;6269953;22;20487;-53
2022/09/21 00:41:57;;;;;;;2.00;1.00;;;;;;;;;;6268256;22;20023;-53
2022/09/21 00:44:32;;;;;;;1.73;1.27;;;;;;;;;;6267422;22;20712;-51
2022/09/21 00:47:07;;;;;;;2.38;1.00;;;;;;;;;;6268693;22;20020;-52
2022/09/21 00:49:44;;;;;;;3.13;1.20;;;;;;;;;;6238735;22;20134;-53
2022/09/21 00:52:20;;;;;;;5.20;1.50;;;;;;;;;;6268547;22;20507;-51
2022/09/21 00:58:19;;;;;;;3.33;1.50;;;;;;;;;;6268718;22;20020;-45
2022/09/21 01:00:54;;;;;;;1.80;1.15;;;;;;;;;;6267878;22;20022;-45
2022/09/21 01:03:22;;;;;;;1.38;1.27;;;;;;;;;;6266150;22;20043;-46
2022/09/21 01:05:56;;;;;;;2.25;1.35;;;;;;;;;;6268127;22;20019;-46
2022/09/21 01:08:25;;;;;;;2.78;1.20;;;;;;;;;;6269055;22;20038;-48
2022/09/21 01:11:07;;;;;;;6.20;1.77;;;;;;;;;;6269483;22;20295;-44
2022/09/21 01:13:47;;;;;;;24.10;1.70;;;;;;;;;;6268328;22;20020;-70
2022/09/21 01:16:22;;;;;;;2.00;1.40;;;;;;;;;;6269887;22;20019;-54
2022/09/21 01:19:15;;;;;;;1.02;0.93;;;;;;;;;;6268498;22;20019;-62
2022/09/21 01:22:00;;;;;;;1.38;1.10;;;;;;;;;;6267077;22;20109;-61
2022/09/21 01:24:52;;;;;;;2.45;1.10;;;;;;;;;;6268457;22;20205;-61
2022/09/21 01:27:29;;;;;;;3.40;1.05;;;;;;;;;;6270895;22;20026;-61
2022/09/21 01:30:23;;;;;;;1.83;1.00;;;;;;;;;;6268846;22;20019;-61
2022/09/21 01:32:50;;;;;;;3.60;1.13;;;;;;;;;;6269848;22;20016;-64
2022/09/21 01:35:43;;;;;;;4.28;1.00;;;;;;;;;;6267929;22;20024;-46
2022/09/21 01:38:21;;;;;;;3.55;1.20;;;;;;;;;;6270032;22;20026;-45
2022/09/21 01:40:58;;;;;;;5.07;1.23;;;;;;;;;;6270375;22;20475;-48
2022/09/21 01:43:32;;;;;;;1.73;1.20;;;;;;;;;;6269469;22;20030;-47
2022/09/21 01:46:09;;;;;;;2.13;1.10;;;;;;;;;;6270070;22;20016;-47
2022/09/21 01:48:38;;;;;;;2.63;1.38;;;;;;;;;;6269528;22;20063;-48
2022/09/21 01:51:13;;;;;;;2.13;1.23;;;;;;;;;;6269567;22;20020;-61
2022/09/21 01:53:50;;;;;;;2.65;1.67;;;;;;;;;;6267740;22;20140;-60
2022/09/21 01:56:35;;;;;;;3.33;1.40;;;;;;;;;;6268968;22;20024;-48
2022/09/21 01:59:20;;;;;;;3.22;1.13;;;;;;;;;;6268684;22;20015;-47
2022/09/21 02:02:06;;;;;;;3.75;1.10;;;;;;;;;;6268024;22;20015;-46
2022/09/21 02:04:34;;;;;;;2.90;1.15;;;;;;;;;;6268646;22;20020;-45
2022/09/21 02:07:08;;;;;;;3.90;1.33;;;;;;;;;;6268623;22;20690;-46
2022/09/21 02:09:36;;;;;;;2.67;1.08;;;;;;;;;;6268713;22;20041;-45
2022/09/21 02:12:19;;;;;;;1.77;1.50;;;;;;;;;;6267180;22;20587;-64
2022/09/21 02:14:46;;;;;;;2.85;1.70;;;;;;;;;;6269199;22;20034;-53
2022/09/21 02:17:25;;;;;;;5.80;1.50;;;;;;;;;;6269226;22;20024;-54
2022/09/21 02:19:53;;;;;;;3.30;1.52;;;;;;;;;;6267205;22;20020;-52
2022/09/21 02:22:37;;;;;;;5.15;1.50;;;;;;;;;;6268845;22;20477;-54
2022/09/21 02:25:13;;;;;;;3.45;1.60;;;;;;;;;;6268539;22;20760;-53
2022/09/21 02:27:47;;;;;;;4.30;1.50;;;;;;;;;;6269137;22;20480;-52
2022/09/21 02:30:14;;;;;;;3.70;1.40;;;;;;;;;;6271817;22;20016;-54
2022/09/21 02:33:00;;;;;;;1.80;1.20;;;;;;;;;;6271081;22;20561;-51
2022/09/21 02:35:36;;;;;;;2.15;1.00;;;;;;;;;;6271936;22;20026;-50
2022/09/21 02:38:10;;;;;;;1.70;1.10;;;;;;;;;;6271484;22;20473;-52
2022/09/21 02:41:02;;;;;;;1.83;1.10;;;;;;;;;;6270481;22;20404;-52
2022/09/21 02:43:29;;;;;;;5.65;1.38;;;;;;;;;;6269993;22;20027;-53
2022/09/21 02:46:06;;;;;;;1.23;0.93;;;;;;;;;;6270834;22;20016;-51
2022/09/21 02:48:43;;;;;;;1.85;1.10;;;;;;;;;;6271185;22;20251;-73
2022/09/21 02:51:19;;;;;;;1.20;1.00;;;;;;;;;;6270678;22;20019;-62
2022/09/21 02:53:46;;;;;;;3.90;1.45;;;;;;;;;;6270312;22;20501;-73
2022/09/21 02:56:14;;;;;;;3.28;1.33;;;;;;;;;;6270646;22;20043;-74
2022/09/21 02:58:53;;;;;;;1.17;0.98;;;;;;;;;;6271569;22;20026;-74
2022/09/21 03:01:22;;;;;;;1.67;1.20;;;;;;;;;;6272036;22;20024;-70
2022/09/21 03:03:56;;;;;;;1.75;1.27;;;;;;;;;;6269610;22;20023;-74
2022/09/21 03:06:23;;;;;;;2.00;1.42;;;;;;;;;;6270256;22;20089;-73
2022/09/21 03:08:50;;;;;;;2.70;1.40;;;;;;;;;;6270199;22;20094;-51
2022/09/21 03:11:24;;;;;;;2.50;1.45;;;;;;;;;;6267745;22;20388;-49
2022/09/21 03:13:51;;;;;;;;;;;;;;;;;;6271340;22;20102;-52
2022/09/21 03:16:25;;;;;;;3.17;1.23;;;;;;;;;;6271680;22;19982;-45
2022/09/21 03:18:52;;;;;;;5.03;1.63;;;;;;;;;;6269028;22;20368;-46
2022/09/21 03:21:20;;;;;;;2.35;1.33;;;;;;;;;;6269542;22;20023;-46
2022/09/21 03:23:54;;;;;;;4.05;1.40;;;;;;;;;;6270393;22;20796;-48
2022/09/21 03:26:21;;;;;;;1.67;1.00;;;;;;;;;;6270915;22;20544;-51
2022/09/21 03:28:55;;;;;;;6.85;1.13;;;;;;;;;;6269606;22;20023;-46
2022/09/21 03:31:22;;;;;;;2.22;1.25;;;;;;;;;;6269278;22;20016;-75
2022/09/21 03:33:50;;;;;;;3.05;1.65;;;;;;;;;;6270075;22;20023;-73
2022/09/21 03:36:24;;;;;;;4.72;1.83;;;;;;;;;;6270875;22;20019;-74
2022/09/21 03:38:51;;;;;;;3.22;1.70;;;;;;;;;;6269645;22;20034;-74
2022/09/21 03:41:25;;;;;;;3.35;1.50;;;;;;;;;;6267939;22;20540;-73
2022/09/21 03:43:52;;;;;;;3.70;1.80;;;;;;;;;;6271418;22;20023;-72
2022/09/21 03:46:20;;;;;;;2.25;1.38;;;;;;;;;;6269819;22;20030;-62
2022/09/21 03:48:54;;;;;;;5.50;1.40;;;;;;;;;;6270483;22;20507;-46
2022/09/21 03:51:22;;;;;;;4.65;1.58;;;;;;;;;;6270469;22;20019;-49
2022/09/21 03:53:56;;;;;;;3.17;1.35;;;;;;;;;;6270582;22;20046;-47
2022/09/21 03:56:30;;;;;;;5.63;1.45;;;;;;;;;;6268999;22;20027;-45
2022/09/21 03:59:11;;;;;;;5.05;1.60;;;;;;;;;;6270325;22;20019;-46
2022/09/21 04:01:40;;;;;;;2.65;1.50;;;;;;;;;;6268981;22;20023;-46
2022/09/21 04:04:15;;;;;;;4.88;1.50;;;;;;;;;;6269707;22;20020;-54
2022/09/21 04:06:45;;;;;;;5.15;1.65;;;;;;;;;;6270469;22;20463;-54
2022/09/21 04:09:12;;;;;;;4.68;1.50;;;;;;;;;;6271047;22;20099;-48
2022/09/21 04:11:47;;;;;;;5.10;1.65;;;;;;;;;;6269174;22;20449;-45
2022/09/21 04:14:14;;;;;;;1.30;1.20;;;;;;;;;;6270454;22;20020;-46
2022/09/21 04:16:49;;;;;;;2.10;1.30;;;;;;;;;;6270116;22;20020;-49
2022/09/21 04:19:16;;;;;;;6.47;1.40;;;;;;;;;;6269731;22;20102;-51
2022/09/21 04:21:44;;;;;;;2.30;1.67;;;;;;;;;;6267962;22;20533;-46
2022/09/21 04:24:18;;;;;;;2.28;1.60;;;;;;;;;;6268397;22;20618;-47
2022/09/21 04:26:45;;;;;;;3.17;1.50;;;;;;;;;;6268252;22;20103;-55
2022/09/21 04:29:19;;;;;;;5.47;1.40;;;;;;;;;;6271085;22;20023;-52
2022/09/21 04:31:46;;;;;;;1.92;1.35;;;;;;;;;;6268837;22;20034;-50
2022/09/21 04:34:13;;;;;;;3.17;1.90;;;;;;;;;;6269005;22;20020;-47
2022/09/21 04:36:47;;;;;;;6.28;1.73;;;;;;;;;;6270899;22;20023;-46
2022/09/21 04:39:14;;;;;;;7.05;1.70;;;;;;;;;;6267406;22;20020;-50
2022/09/21 04:41:48;;;;;;;1.17;1.05;;;;;;;;;;6269603;22;20357;-47
2022/09/21 04:44:17;;;;;;;1.40;1.30;;;;;;;;;;6268091;22;20034;-46
2022/09/21 04:46:44;;;;;;;1.98;1.45;;;;;;;;;;6270454;22;20099;-63
2022/09/21 04:49:18;;;;;;;1.55;1.15;;;;;;;;;;6269662;22;20027;-62
2022/09/21 04:51:45;;;;;;;3.53;1.05;;;;;;;;;;6270573;22;20067;-63
2022/09/21 04:54:19;;;;;;;3.97;1.50;;;;;;;;;;6269444;22;20409;-62
2022/09/21 04:56:53;;;;;;;1.88;1.23;;;;;;;;;;6264633;22;20020;-62
2022/09/21 04:59:27;;;;;;;4.45;1.42;;;;;;;;;;6270485;22;20356;-62
2022/09/21 05:01:54;;;;;;;3.38;1.25;;;;;;;;;;6271469;22;20020;-45
2022/09/21 05:04:21;;;;;;;3.80;1.35;;;;;;;;;;6268038;22;20023;-56
2022/09/21 05:06:57;;;;;;;1.85;1.20;;;;;;;;;;6271739;22;20046;-55
2022/09/21 05:12:17;;;;;;;4.15;1.20;;;;;;;;;;6269571;22;20055;-53
2022/09/21 05:14:44;;;;;;;4.53;1.60;;;;;;;;;;6271650;22;20081;-56
2022/09/21 05:17:12;;;;;;;1.75;1.35;;;;;;;;;;6271272;22;20030;-57
2022/09/21 05:19:46;;;;;;;2.50;1.80;;;;;;;;;;6270414;22;20026;-57
2022/09/21 05:22:20;;;;;;;1.98;1.48;;;;;;;;;;6245970;22;20023;-62
2022/09/21 05:24:47;;;;;;;4.45;1.55;;;;;;;;;;6270330;22;20024;-71
2022/09/21 05:27:21;;;;;;;2.33;1.50;;;;;;;;;;6271221;22;20161;-69
2022/09/21 05:29:48;;;;;;;4.13;1.45;;;;;;;;;;6269582;22;20024;-72
2022/09/21 05:32:25;;;;;;;2.05;1.27;;;;;;;;;;6270171;22;20019;-72
2022/09/21 05:35:05;;;;;;;3.95;1.30;;;;;;;;;;6271205;22;20026;-72
2022/09/21 05:37:35;;;;;;;2.53;1.40;;;;;;;;;;6271073;22;20051;-71
2022/09/21 05:40:10;;;;;;;5.28;1.33;;;;;;;;;;6270902;22;20026;-56
2022/09/21 05:42:37;;;;;;;1.55;1.45;;;;;;;;;;6243155;22;20024;-57
2022/09/21 05:45:05;;;;;;;2.05;1.50;;;;;;;;;;6271374;22;20035;-72
2022/09/21 05:47:48;;;;;;;3.22;1.38;;;;;;;;;;6270777;22;20020;-72
2022/09/21 05:50:15;;;;;;;3.83;1.70;;;;;;;;;;6270844;22;20020;-72
2022/09/21 05:53:00;;;;;;;2.25;1.80;;;;;;;;;;6270821;22;20024;-71
2022/09/21 05:55:46;;;;;;;5.40;1.75;;;;;;;;;;6243440;22;20074;-71
2022/09/21 05:58:32;;;;;;;3.10;1.50;;;;;;;;;;6273943;22;20024;-63
2022/09/21 06:01:16;;;;;;;1.63;1.15;;;;;;;;;;6270939;22;20024;-61
2022/09/21 06:03:50;;;;;;;3.97;1.75;;;;;;;;;;6271183;22;20027;-48
2022/09/21 06:06:18;;;;;;;4.55;2.58;;;;;;;;;;6272307;22;20038;-46
2022/09/21 06:08:52;;;;;;;7.93;5.15;;;;;;;;;;6272013;22;20024;-47
2022/09/21 06:11:19;;;;;;;6.85;3.40;;;;;;;;;;6271545;22;20094;-48
2022/09/21 06:13:53;;;;;;;8.80;3.40;;;;;;;;;;6271866;22;20020;-46
2022/09/21 06:16:20;;;;;;;5.95;3.33;;;;;;;;;;6270915;22;20591;-51
2022/09/21 06:18:48;;;;;;;4.63;2.58;;;;;;;;;;6272361;22;20523;-71
2022/09/21 06:21:22;;;;;;;4.80;2.55;;;;;;;;;;6271812;22;20022;-71
2022/09/21 06:23:49;;;;;;;5.30;2.83;;;;;;;;;;6271166;22;20030;-71
2022/09/21 06:26:23;;;;;;;5.80;2.10;;;;;;;;;;6271413;22;20023;-70
2022/09/21 06:28:50;;;;;;;2.67;1.88;;;;;;;;;;6272159;22;20026;-70
2022/09/21 06:31:17;;;;;;;6.75;2.10;;;;;;;;;;6271284;22;20055;-70
2022/09/21 06:33:51;;;;;;;4.15;1.50;;;;;;;;;;6271192;22;20022;-70
2022/09/21 06:36:18;;;;;;;2.72;1.25;;;;;;;;;;6271808;22;20098;-64
2022/09/21 06:38:45;;;;;;;2.92;1.70;;;;;;;;;;6271289;22;20020;-55
2022/09/21 06:41:19;;;;;;;3.78;1.70;;;;;;;;;;6271252;22;20024;-62
2022/09/21 06:43:47;;;;;;;10.52;6.25;;;;;;;;;;6271485;22;20062;-63
2022/09/21 06:46:21;;;;;;;9.60;6.30;;;;;;;;;;6270476;22;20024;-62
2022/09/21 06:48:49;;;;;;;;;;;;;;;;;;6271811;22;20478;-63
2022/09/21 06:51:16;;;;;;;5.10;3.45;;;;;;;;;;6270998;22;19958;-63
2022/09/21 06:53:53;;;;;;;5.80;5.25;;;;;;;;;;6271492;22;20027;-62
2022/09/21 06:56:20;;;;;;;4.45;2.47;;;;;;;;;;6271533;22;20023;-63
2022/09/21 06:59:01;;;;;;;3.22;2.45;;;;;;;;;;6271921;22;20026;-46
2022/09/21 07:01:28;;;;;;;2.72;1.70;;;;;;;;;;6269683;22;20026;-62
2022/09/21 07:04:02;;;;;;;6.85;1.80;;;;;;;;;;6270902;22;20023;-62
2022/09/21 07:06:29;;;;;;;2.67;1.67;;;;;;;;;;6271212;22;20571;-62
2022/09/21 07:08:57;;;;;;;4.45;1.90;;;;;;;;;;6270670;22;20110;-62
2022/09/21 07:11:51;;;;;;;4.05;1.40;;;;;;;;;;6270993;22;20027;-62
2022/09/21 07:14:25;;;;;;;3.03;1.52;;;;;;;;;;6271677;22;20019;-47
2022/09/21 07:16:52;;;;;;;3.50;1.50;;;;;;;;;;6269809;22;20090;-49
2022/09/21 07:19:19;;;;;;;1.85;1.33;;;;;;;;;;6271314;22;20431;-63
2022/09/21 07:21:53;;;;;;;2.45;1.42;;;;;;;;;;6271758;22;20016;-63
2022/09/21 07:24:20;;;;;;;3.78;1.48;;;;;;;;;;6269657;22;20421;-63
2022/09/21 07:26:54;;;;;;;2.22;1.55;;;;;;;;;;6271913;22;20035;-63
2022/09/21 07:29:21;;;;;;;1.77;1.10;;;;;;;;;;6272235;22;20024;-62
2022/09/21 07:31:48;;;;;;;1.98;1.15;;;;;;;;;;6269645;22;20402;-63
2022/09/21 07:34:22;;;;;;;1.60;0.98;;;;;;;;;;6269896;22;20023;-57
2022/09/21 07:36:49;;;;;;;2.78;1.17;;;;;;;;;;6272166;22;20023;-47
2022/09/21 07:39:44;;;;;;;2.08;0.80;;;;;;;;;;6269572;22;20045;-46
2022/09/21 07:42:19;;;;;;;1.70;0.98;;;;;;;;;;6270621;22;20396;-46
2022/09/21 07:44:53;;;;;;;10.45;1.30;;;;;;;;;;6270912;22;20024;-46
2022/09/21 07:47:30;;;;;;;2.67;0.93;;;;;;;;;;6269842;22;20611;-46
2022/09/21 07:50:04;;;;;;;2.40;0.93;;;;;;;;;;6270597;22;20019;-48
2022/09/21 07:52:31;;;;;;;5.68;1.02;;;;;;;;;;6271311;22;20061;-60
2022/09/21 07:54:58;;;;;;;0.77;0.68;;;;;;;;;;6271709;22;20022;-66
2022/09/21 08:00:31;;;;;;;45.25;17.17;;;;;;;;;;6270291;22;20016;-60
2022/09/21 08:03:05;;;;;;;6.65;3.45;;;;;;;;;;6272164;22;20082;-60
2022/09/21 08:05:33;;;;;;;4.32;2.83;;;;;;;;;;6270826;22;20020;-58
2022/09/21 08:08:07;;;;;;;4.28;2.70;;;;;;;;;;6272033;22;20015;-57
2022/09/21 08:10:36;;;;;;;11.10;7.15;;;;;;;;;;6270508;22;20023;-58
2022/09/21 08:13:03;;;;;;;5.53;3.10;;;;;;;;;;6270070;22;20107;-70
2022/09/21 08:15:37;;;;;;;5.45;1.60;;;;;;;;;;6270128;22;20023;-60
2022/09/21 08:18:16;;;;;;;2.38;1.20;;;;;;;;;;6270617;22;20481;-60
2022/09/21 08:20:59;;;;;;;2.13;0.90;;;;;;;;;;6270207;22;20024;-60
2022/09/21 08:23:27;;;;;;;3.20;1.00;;;;;;;;;;6269267;22;20024;-59
2022/09/21 08:26:02;;;;;;;1.77;0.73;;;;;;;;;;6270460;22;20030;-59
2022/09/21 08:28:30;;;;;;;6.05;1.38;;;;;;;;;;6268959;22;20536;-58
2022/09/21 08:31:00;;;;;;;4.88;1.50;;;;;;;;;;6266680;22;20022;-56
2022/09/21 08:33:34;;;;;;;3.65;0.90;;;;;;;;;;6269422;22;20089;-57
2022/09/21 08:36:02;;;;;;;3.95;1.25;;;;;;;;;;6270980;22;20020;-61
2022/09/21 08:38:37;;;;;;;2.78;0.82;;;;;;;;;;6270713;22;20019;-62
2022/09/21 08:41:15;;;;;;;6.60;1.67;;;;;;;;;;6242824;22;20023;-62
2022/09/21 08:43:52;;;;;;;4.97;1.02;;;;;;;;;;6270913;22;20019;-62
2022/09/21 08:46:24;;;;;;;3.42;1.13;;;;;;;;;;6269280;22;20051;-61
2022/09/21 08:49:00;;;;;;;3.42;1.13;;;;;;;;;;6271322;22;20069;-61
2022/09/21 08:51:32;;;;;;;5.82;1.25;;;;;;;;;;6270337;22;20019;-55
2022/09/21 08:54:10;;;;;;;2.65;1.15;;;;;;;;;;6270706;22;20567;-58
2022/09/21 08:56:44;;;;;;;5.20;1.23;;;;;;;;;;6271122;22;20114;-57
2022/09/21 08:59:46;;;;;;;6.38;1.50;;;;;;;;;;6271400;22;20024;-56
2022/09/21 09:02:31;;;;;;;3.33;1.33;;;;;;;;;;6270006;22;20472;-57
2022/09/21 09:05:25;;;;;;;7.10;1.30;;;;;;;;;;6269877;22;20483;-56
2022/09/21 09:08:08;;;;;;;8.30;1.10;;;;;;;;;;6269143;22;20020;-57
2022/09/21 09:11:01;;;;;;;7.32;1.48;;;;;;;;;;6243649;22;20505;-45
2022/09/21 09:13:34;;;;;;;3.72;1.15;;;;;;;;;;6270192;22;20016;-61
2022/09/21 09:16:26;;;;;;;5.72;1.05;;;;;;;;;;6269826;22;20578;-61
2022/09/21 09:19:05;;;;;;;4.93;1.50;;;;;;;;;;6271077;22;20019;-61
2022/09/21 09:21:40;;;;;;;2.88;1.05;;;;;;;;;;6269665;22;20115;-61
2022/09/21 09:24:12;;;;;;;5.05;1.10;;;;;;;;;;6269852;22;20486;-61
2022/09/21 09:26:46;;;;;;;5.03;1.00;;;;;;;;;;6267054;22;20103;-61
2022/09/21 09:29:13;;;;;;;10.13;1.10;;;;;;;;;;6268165;22;20023;-71
2022/09/21 09:31:41;;;;;;;4.43;1.10;;;;;;;;;;6273174;22;20439;-70
2022/09/21 09:34:19;;;;;;;7.78;1.00;;;;;;;;;;6273852;22;20020;-57
2022/09/21 09:36:48;;;;;;;4.03;1.20;;;;;;;;;;6272511;22;20019;-56
2022/09/21 09:39:27;;;;;;;6.00;0.98;;;;;;;;;;6273236;22;20031;-56
2022/09/21 09:42:13;;;;;;;4.38;1.20;;;;;;;;;;6273487;22;20019;-57
2022/09/21 09:44:50;;;;;;;3.53;1.25;;;;;;;;;;6272265;22;20019;-56
2022/09/21 09:47:23;;;;;;;4.47;1.00;;;;;;;;;;6273112;22;20022;-48
2022/09/21 09:50:10;;;;;;;5.10;1.15;;;;;;;;;;6274403;22;20020;-70
2022/09/21 09:52:38;;;;;;;5.22;0.88;;;;;;;;;;6271022;22;20027;-57
2022/09/21 09:55:20;;;;;;;5.97;1.13;;;;;;;;;;6273591;22;20038;-55
2022/09/21 09:57:54;;;;;;;2.00;0.90;;;;;;;;;;6272347;22;20024;-55
2022/09/21 10:00:28;;;;;;;1.95;0.80;;;;;;;;;;6272689;22;20483;-56
2022/09/21 10:02:57;;;;;;;6.25;1.23;;;;;;;;;;6273717;22;20016;-57
2022/09/21 10:05:32;;;;;;;2.45;0.68;;;;;;;;;;6272285;22;20102;-52
2022/09/21 10:08:00;;;;;;;4.07;0.93;;;;;;;;;;6272996;22;20020;-55
2022/09/21 10:10:35;;;;;;;2.47;0.57;;;;;;;;;;6272862;22;20024;-55
2022/09/21 10:13:11;;;;;;;2.03;0.73;;;;;;;;;;6272053;22;20042;-55
2022/09/21 10:16:06;;;;;;;5.38;1.20;;;;;;;;;;6273833;22;20107;-57
2022/09/21 10:18:45;;;;;;;5.90;0.90;;;;;;;;;;6270292;22;20073;-57
2022/09/21 10:21:21;;;;;;;5.35;0.93;;;;;;;;;;6273017;22;20023;-54
2022/09/21 10:23:50;;;;;;;2.58;0.80;;;;;;;;;;6273464;22;20054;-53
2022/09/21 10:26:30;;;;;;;5.13;1.02;;;;;;;;;;6245994;22;20027;-51
2022/09/21 10:29:01;;;;;;;3.97;0.75;;;;;;;;;;6273569;22;20025;-61
2022/09/21 10:31:35;;;;;;;6.10;1.15;;;;;;;;;;6273119;22;20043;-61
2022/09/21 10:34:12;;;;;;;5.50;1.38;;;;;;;;;;6272586;22;20028;-60
2022/09/21 10:36:50;;;;;;;3.17;0.85;;;;;;;;;;6272467;22;20019;-60
2022/09/21 10:39:25;;;;;;;3.30;1.23;;;;;;;;;;6272119;22;20024;-61
2022/09/21 10:42:14;;;;;;;3.08;1.30;;;;;;;;;;6270755;22;20019;-60
2022/09/21 10:44:41;;;;;;;3.53;0.80;;;;;;;;;;6244743;22;20062;-64
2022/09/21 10:47:36;;;;;;;1.63;0.50;;;;;;;;;;6271747;22;20469;-51
2022/09/21 10:50:19;;;;;;;2.22;0.80;;;;;;;;;;6271480;22;20023;-51
2022/09/21 10:53:08;;;;;;;5.35;1.27;;;;;;;;;;6272579;22;20020;-53
2022/09/21 10:55:54;;;;;;;2.35;0.88;;;;;;;;;;6270010;22;20028;-54
2022/09/21 10:59:09;;;;;;;3.22;0.80;;;;;;;;;;6239539;23;20028;-53
2022/09/21 11:01:36;;;;;;;2.38;0.63;;;;;;;;;;6240567;23;20020;-58
2022/09/21 11:04:13;;;;;;;2.85;0.70;;;;;;;;;;6239964;23;20020;-45
2022/09/21 11:06:42;;;;;;;1.98;0.70;;;;;;;;;;6239935;23;20024;-67
2022/09/21 11:09:19;;;;;;;12.30;1.30;;;;;;;;;;6239527;23;20103;-73
2022/09/21 11:11:47;;;;;;;3.60;1.00;;;;;;;;;;6240429;23;20024;-72
2022/09/21 11:14:27;;;;;;;5.05;1.00;;;;;;;;;;6239794;23;20034;-71
2022/09/21 11:17:09;;;;;;;2.25;0.77;;;;;;;;;;6240540;23;20349;-73
2022/09/21 11:19:48;;;;;;;5.20;0.82;;;;;;;;;;6239345;23;20027;-71
2022/09/21 11:22:18;;;;;;;5.97;0.82;;;;;;;;;;6241018;23;20026;-57
2022/09/21 11:24:57;;;;;;;4.40;0.90;;;;;;;;;;6239871;23;20517;-54
2022/09/21 11:27:31;;;;;;;4.70;1.02;;;;;;;;;;6212992;23;20026;-60
2022/09/21 11:30:12;;;;;;;5.30;1.00;;;;;;;;;;6240737;23;20023;-60
2022/09/21 11:32:51;;;;;;;14.00;1.30;;;;;;;;;;6238977;23;20103;-60
2022/09/21 11:35:28;;;;;;;8.50;1.33;;;;;;;;;;6239462;23;20098;-60
2022/09/21 11:38:03;;;;;;;7.28;1.50;;;;;;;;;;6239060;23;20174;-60
2022/09/21 11:40:37;;;;;;;2.50;0.95;;;;;;;;;;6240415;23;20095;-60
2022/09/21 11:43:22;;;;;;;3.17;0.80;;;;;;;;;;6240247;23;20043;-64
2022/09/21 11:46:06;;;;;;;6.38;1.30;;;;;;;;;;6238930;23;20047;-55
2022/09/21 11:48:58;;;;;;;3.92;1.10;;;;;;;;;;6238601;23;20024;-55
2022/09/21 11:51:51;;;;;;;2.92;0.85;;;;;;;;;;6239675;23;20050;-55
2022/09/21 11:54:43;;;;;;;3.22;1.00;;;;;;;;;;6213741;23;20020;-52
2022/09/21 11:57:33;;;;;;;4.43;0.85;;;;;;;;;;6254738;22;20028;-51
2022/09/21 12:00:07;;;;;;;3.47;0.95;;;;;;;;;;6270431;22;20034;-54
2022/09/21 12:03:00;;;;;;;2.60;0.90;;;;;;;;;;6270278;22;20469;-71
2022/09/21 12:05:31;;;;;;;4.45;0.77;;;;;;;;;;6267637;22;20047;-55
2022/09/21 12:08:24;;;;;;;1.20;0.60;;;;;;;;;;6245355;22;20026;-56
2022/09/21 12:11:17;;;;;;;0.43;0.40;;;;;;;;;;6270696;22;20024;-56
2022/09/21 12:13:44;;;;;;;3.30;1.15;;;;;;;;;;6269504;22;20015;-56
2022/09/21 12:16:40;;;;;;;4.82;0.80;;;;;;;;;;6270598;22;20069;-54
2022/09/21 12:19:23;;;;;;;1.65;0.90;;;;;;;;;;6271373;22;20024;-58
2022/09/21 12:22:03;;;;;;;1.65;0.80;;;;;;;;;;6269724;22;20020;-75
2022/09/21 12:24:33;;;;;;;2.20;0.60;;;;;;;;;;6269823;22;20539;-64
2022/09/21 12:27:12;;;;;;;3.08;0.80;;;;;;;;;;6269679;22;20022;-65
2022/09/21 12:29:46;;;;;;;1.92;0.45;;;;;;;;;;6270312;22;20020;-65
2022/09/21 12:32:23;;;;;;;1.95;0.75;;;;;;;;;;6269808;22;20102;-64
2022/09/21 12:34:53;;;;;;;2.55;0.60;;;;;;;;;;6269798;22;20560;-64
2022/09/21 12:37:37;;;;;;;3.38;0.68;;;;;;;;;;6268385;22;20027;-65
2022/09/21 12:40:07;;;;;;;2.75;0.75;;;;;;;;;;6270168;22;20026;-60
2022/09/21 12:42:44;;;;;;;7.55;1.08;;;;;;;;;;6269850;22;20020;-59
2022/09/21 12:45:16;;;;;;;6.25;0.90;;;;;;;;;;6269383;22;20023;-59
2022/09/21 12:48:06;;;;;;;2.78;0.90;;;;;;;;;;6270637;22;20455;-60
2022/09/21 12:50:33;;;;;;;5.43;1.00;;;;;;;;;;6268616;22;20046;-60
2022/09/21 12:53:11;;;;;;;5.95;1.17;;;;;;;;;;6270093;22;20028;-59
2022/09/21 12:55:40;;;;;;;2.75;0.90;;;;;;;;;;6243546;22;20115;-59
2022/09/21 12:58:33;;;;;;;3.47;1.10;;;;;;;;;;6269109;22;20031;-60
2022/09/21 13:01:03;;;;;;;3.83;1.17;;;;;;;;;;6270424;22;20095;-53
2022/09/21 13:03:51;;;;;;;1.88;0.70;;;;;;;;;;6268530;22;20020;-75
2022/09/21 13:06:37;;;;;;;1.77;0.50;;;;;;;;;;6270046;22;20106;-74
2022/09/21 13:09:13;;;;;;;3.97;0.73;;;;;;;;;;6268998;22;20434;-74
2022/09/21 13:11:55;;;;;;;1.45;0.80;;;;;;;;;;6269441;22;20650;-73
2022/09/21 13:14:35;;;;;;;3.30;0.83;;;;;;;;;;6268731;22;20020;-74
2022/09/21 13:17:03;;;;;;;4.68;0.90;;;;;;;;;;6270489;22;20062;-55
2022/09/21 13:19:37;;;;;;;5.38;1.30;;;;;;;;;;6269164;22;20026;-59
2022/09/21 13:22:17;;;;;;;4.63;1.50;;;;;;;;;;6270544;22;20564;-64
2022/09/21 13:25:10;;;;;;;4.60;0.90;;;;;;;;;;6269530;22;20016;-64
2022/09/21 13:27:59;;;;;;;2.10;0.80;;;;;;;;;;6269691;22;20098;-65
2022/09/21 13:30:35;;;;;;;3.72;0.93;;;;;;;;;;6268806;22;20030;-64
2022/09/21 13:33:04;;;;;;;5.50;1.20;;;;;;;;;;6268839;22;20055;-64
2022/09/21 13:35:46;;;;;;;5.90;1.17;;;;;;;;;;6269522;22;20480;-56
2022/09/21 13:38:20;;;;;;;;;;;;;;;;;;6270265;22;20081;-76
2022/09/21 13:40:56;;;;;;;3.92;1.20;;;;;;;;;;6269517;22;20325;-55
2022/09/21 13:44:08;;;;;;;4.60;1.40;;;;;;;;;;6271027;22;20015;-57
2022/09/21 13:46:36;;;;;;;5.65;1.30;;;;;;;;;;6114708;23;20093;-56
2022/09/21 13:49:10;;;;;;;3.28;1.10;;;;;;;;;;6115673;23;20032;-56
2022/09/21 13:51:56;;;;;;;4.80;1.42;;;;;;;;;;6197505;22;20016;-56
2022/09/21 13:54:45;;;;;;;4.53;1.15;;;;;;;;;;6269599;22;20103;-58
2022/09/21 13:57:25;;;;;;;6.07;1.60;;;;;;;;;;6268559;22;20028;-50
2022/09/21 13:59:59;;;;;;;5.82;1.50;;;;;;;;;;6270338;22;20231;-48
2022/09/21 14:02:31;;;;;;;11.45;1.55;;;;;;;;;;6268407;22;20022;-47
2022/09/21 14:05:24;;;;;;;5.57;1.10;;;;;;;;;;6268136;22;20019;-46
2022/09/21 14:07:55;;;;;;;5.90;1.40;;;;;;;;;;6269377;22;20020;-46
2022/09/21 14:10:30;;;;;;;3.58;1.13;;;;;;;;;;6263803;22;20062;-48
2022/09/21 14:12:59;;;;;;;6.90;1.30;;;;;;;;;;6265535;22;20024;-50
2022/09/21 14:15:35;;;;;;;2.95;0.77;;;;;;;;;;6266209;22;20031;-75
2022/09/21 14:18:15;;;;;;;5.20;1.10;;;;;;;;;;6267209;22;20062;-63
2022/09/21 14:21:07;;;;;;;4.93;1.20;;;;;;;;;;6268619;22;20034;-64
2022/09/21 14:23:36;;;;;;;8.10;1.50;;;;;;;;;;6268153;22;20027;-64
2022/09/21 14:26:30;;;;;;;7.70;1.67;;;;;;;;;;6269399;22;20133;-63
2022/09/21 14:28:57;;;;;;;6.72;1.38;;;;;;;;;;6269489;22;20024;-63
2022/09/21 14:31:33;;;;;;;8.63;1.50;;;;;;;;;;6266690;22;20026;-64
2022/09/21 14:34:02;;;;;;;4.47;0.85;;;;;;;;;;6268600;22;20030;-53
2022/09/21 14:36:40;;;;;;;9.20;1.77;;;;;;;;;;6267878;22;20029;-63
2022/09/21 14:39:23;;;;;;;4.35;1.42;;;;;;;;;;6269133;22;20099;-63
2022/09/21 14:42:00;;;;;;;5.03;1.70;;;;;;;;;;6269087;22;20023;-63
2022/09/21 14:44:28;;;;;;;8.77;1.50;;;;;;;;;;6269481;22;20098;-64
2022/09/21 14:47:05;;;;;;;3.45;1.60;;;;;;;;;;6267284;22;20461;-63
2022/09/21 14:49:35;;;;;;;6.32;1.35;;;;;;;;;;6267265;22;20074;-64
2022/09/21 14:52:13;;;;;;;6.30;1.67;;;;;;;;;;6268122;22;20091;-56
2022/09/21 14:54:56;;;;;;;4.53;1.25;;;;;;;;;;6269128;22;20019;-46
2022/09/21 14:57:52;;;;;;;7.18;1.40;;;;;;;;;;6266639;22;20034;-48
2022/09/21 15:00:25;;;;;;;;;;;;;;;;;;6270024;22;20035;-45
2022/09/21 15:03:25;;;;;;;5.63;1.40;;;;;;;;;;6267287;22;19990;-49
2022/09/21 15:05:56;;;;;;;9.75;1.25;;;;;;;;;;6267259;22;20019;-46
2022/09/21 15:11:39;;;;;;;3.88;1.33;;;;;;;;;;6267069;22;20026;-51
2022/09/21 15:14:21;;;;;;;7.80;1.20;;;;;;;;;;6268652;22;20103;-45
2022/09/21 15:16:50;;;;;;;7.57;1.58;;;;;;;;;;6267776;22;20024;-73
2022/09/21 15:19:26;;;;;;;5.63;1.10;;;;;;;;;;6242277;22;20030;-74
2022/09/21 15:21:54;;;;;;;6.53;1.67;;;;;;;;;;6268047;22;20046;-73
2022/09/21 15:24:32;;;;;;;4.65;1.15;;;;;;;;;;6267109;22;20098;-72
2022/09/21 15:27:14;;;;;;;7.20;1.90;;;;;;;;;;6267979;22;20023;-73
2022/09/21 15:29:47;;;;;;;12.98;1.70;;;;;;;;;;6267900;22;20099;-59
2022/09/21 15:32:27;;;;;;;8.55;1.40;;;;;;;;;;6265546;22;20030;-55
2022/09/21 15:35:01;;;;;;;7.15;1.23;;;;;;;;;;6267201;22;20360;-55
2022/09/21 15:37:36;;;;;;;4.95;1.10;;;;;;;;;;6266333;22;20030;-57
2022/09/21 15:40:05;;;;;;;8.48;1.83;;;;;;;;;;6266255;22;20343;-57
2022/09/21 15:42:42;;;;;;;4.07;1.27;;;;;;;;;;6267813;22;20531;-57
2022/09/21 15:45:14;;;;;;;10.50;1.50;;;;;;;;;;6267127;22;20023;-56